Time,TemperatureF,DewpointF,PressureIn,WindDirection,WindDirectionDegrees,WindSpeedMPH,WindSpeedGustMPH,Humidity,HourlyPrecipIn,Conditions,Clouds,dailyrainin,SolarRadiationWatts/m^2,SoftwareType,DateUTC
2013-03-30 00:02:00,32.0,22.0,-100.00,North,7,4.0,11.0,66,0.00,,,0.00,0.000000,,2013-03-30 06:02:00,
2013-03-30 00:12:00,32.0,22.0,-100.00,North,7,4.0,11.0,66,0.00,,,0.00,0.000000,,2013-03-30 06:12:00,
2013-03-30 00:23:00,32.0,22.0,-100.00,North,7,4.0,11.0,66,0.00,,,0.00,0.000000,,2013-03-30 06:23:00,
2013-03-30 00:32:00,32.0,22.0,-100.00,North,7,4.0,11.0,66,0.00,,,0.00,0.000000,,2013-03-30 06:32:00,
2013-03-30 01:02:00,32.0,22.0,-100.00,North,4,5.0,7.0,66,0.00,,,0.00,0.000000,,2013-03-30 07:02:00,
2013-03-30 01:12:00,32.0,22.0,-100.00,North,4,5.0,7.0,66,0.00,,,0.00,0.000000,,2013-03-30 07:12:00,
2013-03-30 01:22:00,32.0,22.0,-100.00,North,4,5.0,7.0,66,0.00,,,0.00,0.000000,,2013-03-30 07:22:00,
2013-03-30 01:32:00,32.0,22.0,-100.00,North,4,5.0,7.0,66,0.00,,,0.00,0.000000,,2013-03-30 07:32:00,
2013-03-30 02:02:00,30.0,21.0,-100.00,North,355,6.0,9.0,70,0.00,,,0.00,0.000000,,2013-03-30 08:02:00,
2013-03-30 02:12:00,30.0,21.0,-100.00,North,355,6.0,9.0,70,0.00,,,0.00,0.000000,,2013-03-30 08:12:00,
2013-03-30 02:22:00,30.0,21.0,-100.00,North,355,6.0,9.0,70,0.00,,,0.00,0.000000,,2013-03-30 08:22:00,
2013-03-30 02:32:00,30.0,21.0,-100.00,North,355,6.0,9.0,70,0.00,,,0.00,0.000000,,2013-03-30 08:32:00,
2013-03-30 03:02:00,28.0,21.0,-100.00,North,6,5.0,7.0,75,0.00,,,0.00,0.000000,,2013-03-30 09:02:00,
2013-03-30 03:12:00,28.0,21.0,-100.00,North,6,5.0,7.0,75,0.00,,,0.00,0.000000,,2013-03-30 09:12:00,
2013-03-30 03:22:00,28.0,21.0,-100.00,North,6,5.0,7.0,75,0.00,,,0.00,0.000000,,2013-03-30 09:22:00,
2013-03-30 03:33:00,28.0,21.0,-100.00,North,6,5.0,7.0,75,0.00,,,0.00,0.000000,,2013-03-30 09:33:00,
2013-03-30 04:02:00,29.0,21.0,-100.00,North,10,4.0,9.0,73,0.00,,,-99.99,0.000000,,2013-03-30 10:02:00,
2013-03-30 04:13:00,29.0,21.0,-100.00,North,10,4.0,9.0,73,0.00,,,-99.99,0.000000,,2013-03-30 10:13:00,
2013-03-30 04:23:00,29.0,21.0,-100.00,North,10,4.0,9.0,73,0.00,,,-99.99,0.000000,,2013-03-30 10:23:00,
2013-03-30 04:33:00,29.0,21.0,-100.00,North,10,4.0,9.0,73,0.00,,,-99.99,0.000000,,2013-03-30 10:33:00,
2013-03-30 05:03:00,28.0,22.0,-100.00,North,10,5.0,7.0,78,0.00,,,-99.99,0.000000,,2013-03-30 11:03:00,
2013-03-30 05:12:00,28.0,22.0,-100.00,North,10,5.0,7.0,78,0.00,,,-99.99,0.000000,,2013-03-30 11:12:00,
2013-03-30 05:22:00,28.0,22.0,-100.00,North,10,5.0,7.0,78,0.00,,,-99.99,0.000000,,2013-03-30 11:22:00,
2013-03-30 05:33:00,28.0,22.0,-100.00,North,10,5.0,7.0,78,0.00,,,-99.99,0.000000,,2013-03-30 11:33:00,
2013-03-30 06:02:00,27.0,21.0,-100.00,NNW,343,4.0,9.0,79,0.00,,,0.00,0.000000,,2013-03-30 12:02:00,
2013-03-30 06:12:00,27.0,21.0,-100.00,NNW,343,4.0,9.0,79,0.00,,,0.00,0.000000,,2013-03-30 12:12:00,
2013-03-30 06:22:00,27.0,21.0,-100.00,NNW,343,4.0,9.0,79,0.00,,,0.00,0.000000,,2013-03-30 12:22:00,
2013-03-30 06:32:00,27.0,21.0,-100.00,NNW,343,4.0,9.0,79,0.00,,,0.00,0.000000,,2013-03-30 12:32:00,
2013-03-30 07:02:00,27.0,21.0,-100.00,North,358,4.0,8.0,78,0.00,,,0.00,0.000000,,2013-03-30 13:02:00,
2013-03-30 07:12:00,27.0,21.0,-100.00,North,358,4.0,8.0,78,0.00,,,0.00,0.000000,,2013-03-30 13:12:00,
2013-03-30 07:22:00,27.0,21.0,-100.00,North,358,4.0,8.0,78,0.00,,,0.00,0.000000,,2013-03-30 13:22:00,
2013-03-30 07:32:00,27.0,21.0,-100.00,North,358,4.0,8.0,78,0.00,,,0.00,0.000000,,2013-03-30 13:32:00,
2013-03-30 08:02:00,28.0,22.0,-100.00,North,352,5.0,9.0,79,0.00,,,0.00,11.000000,,2013-03-30 14:02:00,
2013-03-30 08:12:00,28.0,22.0,-100.00,North,352,5.0,9.0,79,0.00,,,0.00,11.000000,,2013-03-30 14:12:00,
2013-03-30 08:23:00,28.0,22.0,-100.00,North,352,5.0,9.0,79,0.00,,,0.00,11.000000,,2013-03-30 14:23:00,
2013-03-30 08:32:00,28.0,22.0,-100.00,North,352,5.0,9.0,79,0.00,,,0.00,11.000000,,2013-03-30 14:32:00,
2013-03-30 09:03:00,42.0,25.0,-100.00,NNE,18,2.0,7.0,51,0.00,,,0.00,166.000000,,2013-03-30 15:03:00,
2013-03-30 09:12:00,42.0,25.0,-100.00,NNE,18,2.0,7.0,51,0.00,,,0.00,166.000000,,2013-03-30 15:12:00,
2013-03-30 09:22:00,42.0,25.0,-100.00,NNE,18,2.0,7.0,51,0.00,,,0.00,166.000000,,2013-03-30 15:22:00,
2013-03-30 09:33:00,42.0,25.0,-100.00,NNE,18,2.0,7.0,51,0.00,,,0.00,166.000000,,2013-03-30 15:33:00,
2013-03-30 10:03:00,46.0,25.0,-100.00,South,172,8.0,11.0,43,0.00,,,0.00,391.000000,,2013-03-30 16:03:00,
2013-03-30 10:13:00,46.0,25.0,-100.00,South,172,8.0,11.0,43,0.00,,,0.00,391.000000,,2013-03-30 16:13:00,
2013-03-30 10:23:00,46.0,25.0,-100.00,South,172,8.0,11.0,43,0.00,,,0.00,391.000000,,2013-03-30 16:23:00,
2013-03-30 10:33:00,46.0,25.0,-100.00,South,172,8.0,11.0,43,0.00,,,0.00,391.000000,,2013-03-30 16:33:00,
2013-03-30 11:02:00,48.0,24.0,-100.00,SSE,168,7.0,12.0,39,0.00,,,0.00,592.000000,,2013-03-30 17:02:00,
2013-03-30 11:13:00,48.0,24.0,-100.00,SSE,168,7.0,12.0,39,0.00,,,0.00,592.000000,,2013-03-30 17:13:00,
2013-03-30 11:23:00,48.0,24.0,-100.00,SSE,168,7.0,12.0,39,0.00,,,0.00,592.000000,,2013-03-30 17:23:00,
2013-03-30 11:32:00,48.0,24.0,-100.00,SSE,168,7.0,12.0,39,0.00,,,0.00,592.000000,,2013-03-30 17:32:00,
2013-03-30 12:03:00,51.0,24.0,-100.00,WNW,285,12.0,23.0,34,0.00,,,0.00,714.000000,,2013-03-30 18:03:00,
2013-03-30 12:12:00,51.0,24.0,-100.00,WNW,285,12.0,23.0,34,0.00,,,0.00,714.000000,,2013-03-30 18:12:00,
2013-03-30 12:22:00,51.0,24.0,-100.00,WNW,285,12.0,23.0,34,0.00,,,0.00,714.000000,,2013-03-30 18:22:00,
2013-03-30 12:32:00,51.0,24.0,-100.00,WNW,285,12.0,23.0,34,0.00,,,0.00,714.000000,,2013-03-30 18:32:00,
2013-03-30 13:03:00,53.0,23.0,-100.00,NW,304,14.0,27.0,31,0.00,,,0.00,932.000000,,2013-03-30 19:03:00,
2013-03-30 13:13:00,53.0,23.0,-100.00,NW,304,14.0,27.0,31,0.00,,,0.00,932.000000,,2013-03-30 19:13:00,
2013-03-30 13:22:00,53.0,23.0,-100.00,NW,304,14.0,27.0,31,0.00,,,0.00,932.000000,,2013-03-30 19:22:00,
2013-03-30 13:32:00,53.0,23.0,-100.00,NW,304,14.0,27.0,31,0.00,,,0.00,932.000000,,2013-03-30 19:32:00,
2013-03-30 14:02:00,53.0,22.0,-100.00,WNW,288,13.0,24.0,29,0.00,,,0.00,987.000000,,2013-03-30 20:02:00,
2013-03-30 14:12:00,53.0,22.0,-100.00,WNW,288,13.0,24.0,29,0.00,,,0.00,987.000000,,2013-03-30 20:12:00,
2013-03-30 14:22:00,53.0,22.0,-100.00,WNW,288,13.0,24.0,29,0.00,,,0.00,987.000000,,2013-03-30 20:22:00,
2013-03-30 14:32:00,53.0,22.0,-100.00,WNW,288,13.0,24.0,29,0.00,,,0.00,987.000000,,2013-03-30 20:32:00,
2013-03-30 15:02:00,52.0,24.0,-100.00,WNW,295,16.0,30.0,33,0.00,,,0.00,920.000000,,2013-03-30 21:02:00,
2013-03-30 15:12:00,52.0,24.0,-100.00,WNW,295,16.0,30.0,33,0.00,,,0.00,920.000000,,2013-03-30 21:12:00,
2013-03-30 15:22:00,52.0,24.0,-100.00,WNW,295,16.0,30.0,33,0.00,,,0.00,920.000000,,2013-03-30 21:22:00,
2013-03-30 15:33:00,52.0,24.0,-100.00,WNW,295,16.0,30.0,33,0.00,,,0.00,920.000000,,2013-03-30 21:33:00,
2013-03-30 16:03:00,54.0,22.0,-100.00,WNW,298,18.0,29.0,28,0.00,,,0.00,922.000000,,2013-03-30 22:03:00,
2013-03-30 16:13:00,54.0,22.0,-100.00,WNW,298,18.0,29.0,28,0.00,,,0.00,922.000000,,2013-03-30 22:13:00,
2013-03-30 16:23:00,54.0,22.0,-100.00,WNW,298,18.0,29.0,28,0.00,,,0.00,922.000000,,2013-03-30 22:23:00,
2013-03-30 16:33:00,54.0,22.0,-100.00,WNW,298,18.0,29.0,28,0.00,,,0.00,922.000000,,2013-03-30 22:33:00,
2013-03-30 17:02:00,53.0,19.0,-100.00,WNW,290,16.0,29.0,26,0.00,,,0.00,758.000000,,2013-03-30 23:02:00,
2013-03-30 17:12:00,53.0,19.0,-100.00,WNW,290,16.0,29.0,26,0.00,,,0.00,758.000000,,2013-03-30 23:12:00,
2013-03-30 17:22:00,53.0,19.0,-100.00,WNW,290,16.0,29.0,26,0.00,,,0.00,758.000000,,2013-03-30 23:22:00,
2013-03-30 17:32:00,53.0,19.0,-100.00,WNW,290,16.0,29.0,26,0.00,,,0.00,758.000000,,2013-03-30 23:32:00,
2013-03-30 18:02:00,52.0,19.0,-100.00,WNW,284,17.0,25.0,27,0.00,,,0.00,577.000000,,2013-03-31 00:02:00,
2013-03-30 18:12:00,52.0,19.0,-100.00,WNW,284,17.0,25.0,27,0.00,,,0.00,577.000000,,2013-03-31 00:12:00,
2013-03-30 18:22:00,52.0,19.0,-100.00,WNW,284,17.0,25.0,27,0.00,,,0.00,577.000000,,2013-03-31 00:22:00,
2013-03-30 18:32:00,52.0,19.0,-100.00,WNW,284,17.0,25.0,27,0.00,,,0.00,577.000000,,2013-03-31 00:32:00,
2013-03-30 19:02:00,49.0,19.0,-100.00,WNW,294,14.0,24.0,30,0.00,,,0.00,229.000000,,2013-03-31 01:02:00,
2013-03-30 19:12:00,49.0,19.0,-100.00,WNW,294,14.0,24.0,30,0.00,,,0.00,229.000000,,2013-03-31 01:12:00,
2013-03-30 19:22:00,49.0,19.0,-100.00,WNW,294,14.0,24.0,30,0.00,,,0.00,229.000000,,2013-03-31 01:22:00,
2013-03-30 19:32:00,49.0,19.0,-100.00,WNW,294,14.0,24.0,30,0.00,,,0.00,229.000000,,2013-03-31 01:32:00,
2013-03-30 20:02:00,44.0,19.0,-100.00,WNW,299,7.0,17.0,37,0.00,,,0.00,23.000000,,2013-03-31 02:02:00,
2013-03-30 20:13:00,44.0,19.0,-100.00,WNW,299,7.0,17.0,37,0.00,,,0.00,23.000000,,2013-03-31 02:13:00,
2013-03-30 20:22:00,44.0,19.0,-100.00,WNW,299,7.0,17.0,37,0.00,,,0.00,23.000000,,2013-03-31 02:22:00,
2013-03-30 20:32:00,44.0,19.0,-100.00,WNW,299,7.0,17.0,37,0.00,,,0.00,23.000000,,2013-03-31 02:32:00,
2013-03-30 21:02:00,37.0,21.0,-100.00,North,1,5.0,7.0,51,0.00,,,0.00,0.000000,,2013-03-31 03:02:00,
2013-03-30 21:12:00,37.0,21.0,-100.00,North,1,5.0,7.0,51,0.00,,,0.00,0.000000,,2013-03-31 03:12:00,
2013-03-30 21:22:00,37.0,21.0,-100.00,North,1,5.0,7.0,51,0.00,,,0.00,0.000000,,2013-03-31 03:22:00,
2013-03-30 21:33:00,37.0,21.0,-100.00,North,1,5.0,7.0,51,0.00,,,0.00,0.000000,,2013-03-31 03:33:00,
2013-03-30 22:03:00,34.0,-99.9,-100.00,NNW,337,3.0,7.0,58,0.00,,,0.00,0.000000,,2013-03-31 04:03:00,
2013-03-30 22:13:00,34.0,21.0,-100.00,NNW,337,3.0,7.0,58,0.00,,,0.00,0.000000,,2013-03-31 04:13:00,
2013-03-30 22:23:00,34.0,21.0,-100.00,NNW,337,3.0,7.0,58,0.00,,,0.00,0.000000,,2013-03-31 04:23:00,
2013-03-30 22:32:00,34.0,21.0,-100.00,NNW,337,3.0,7.0,58,0.00,,,0.00,0.000000,,2013-03-31 04:32:00,
2013-03-30 23:02:00,39.0,22.0,-100.00,NW,314,12.0,17.0,51,0.00,,,0.00,0.000000,,2013-03-31 05:02:00,
2013-03-30 23:12:00,39.0,22.0,-100.00,NW,314,12.0,17.0,51,0.00,,,0.00,0.000000,,2013-03-31 05:12:00,
2013-03-30 23:22:00,39.0,22.0,-100.00,NW,314,12.0,17.0,51,0.00,,,0.00,0.000000,,2013-03-31 05:22:00,
2013-03-30 23:32:00,39.0,22.0,-100.00,NW,314,12.0,17.0,51,0.00,,,0.00,0.000000,,2013-03-31 05:32:00,